sensor_id;sensor_type;location;lat;lon;timestamp;temperature;humidity
3980;DHT22;2004;52.452;13.120;2022-09-29T00:02:29;9.40;99.90
3980;DHT22;2004;52.452;13.120;2022-09-29T00:10:20;9.40;99.90
3980;DHT22;2004;52.452;13.120;2022-09-29T00:18:10;9.40;99.90
3980;DHT22;2004;52.452;13.120;2022-09-29T00:26:11;9.40;99.90
3980;DHT22;2004;52.452;13.120;2022-09-29T00:34:02;9.40;99.90
3980;DHT22;2004;52.452;13.120;2022-09-29T00:41:52;9.30;99.90
3980;DHT22;2004;52.452;13.120;2022-09-29T00:49:48;9.40;99.90
3980;DHT22;2004;52.452;13.120;2022-09-29T00:57:58;9.40;99.90
3980;DHT22;2004;52.452;13.120;2022-09-29T01:05:56;9.30;99.90
3980;DHT22;2004;52.452;13.120;2022-09-29T01:13:48;9.30;99.90
3980;DHT22;2004;52.452;13.120;2022-09-29T01:22:09;9.30;99.90
3980;DHT22;2004;52.452;13.120;2022-09-29T01:38:35;9.30;99.90
3980;DHT22;2004;52.452;13.120;2022-09-29T01:46:47;9.30;99.90
3980;DHT22;2004;52.452;13.120;2022-09-29T01:55:17;9.20;99.90
3980;DHT22;2004;52.452;13.120;2022-09-29T02:11:07;9.20;99.90
3980;DHT22;2004;52.452;13.120;2022-09-29T02:19:07;9.10;99.90
3980;DHT22;2004;52.452;13.120;2022-09-29T02:26:57;9.10;99.90
3980;DHT22;2004;52.452;13.120;2022-09-29T02:34:49;9.00;99.90
3980;DHT22;2004;52.452;13.120;2022-09-29T02:51:10;9.00;99.90
3980;DHT22;2004;52.452;13.120;2022-09-29T02:59:07;9.00;99.90
3980;DHT22;2004;52.452;13.120;2022-09-29T03:06:59;8.90;99.90
3980;DHT22;2004;52.452;13.120;2022-09-29T03:14:49;9.00;99.90
3980;DHT22;2004;52.452;13.120;2022-09-29T03:22:40;9.00;99.90
3980;DHT22;2004;52.452;13.120;2022-09-29T03:30:31;9.00;99.90
3980;DHT22;2004;52.452;13.120;2022-09-29T03:38:21;9.00;99.90
3980;DHT22;2004;52.452;13.120;2022-09-29T03:46:12;9.00;99.90
3980;DHT22;2004;52.452;13.120;2022-09-29T03:54:02;9.00;99.90
3980;DHT22;2004;52.452;13.120;2022-09-29T04:01:53;8.90;99.90
3980;DHT22;2004;52.452;13.120;2022-09-29T04:09:43;9.00;99.90
3980;DHT22;2004;52.452;13.120;2022-09-29T04:17:33;8.90;99.90
3980;DHT22;2004;52.452;13.120;2022-09-29T04:25:24;8.90;99.90
3980;DHT22;2004;52.452;13.120;2022-09-29T04:33:14;8.90;99.90
3980;DHT22;2004;52.452;13.120;2022-09-29T04:41:05;8.90;99.90
3980;DHT22;2004;52.452;13.120;2022-09-29T04:48:55;8.90;99.90
3980;DHT22;2004;52.452;13.120;2022-09-29T04:56:49;8.90;99.90
3980;DHT22;2004;52.452;13.120;2022-09-29T05:04:40;8.90;99.90
3980;DHT22;2004;52.452;13.120;2022-09-29T05:12:31;8.90;99.90
3980;DHT22;2004;52.452;13.120;2022-09-29T05:20:21;9.00;99.90
3980;DHT22;2004;52.452;13.120;2022-09-29T05:28:13;9.00;99.90
3980;DHT22;2004;52.452;13.120;2022-09-29T05:36:06;9.00;99.90
3980;DHT22;2004;52.452;13.120;2022-09-29T05:43:56;9.00;99.90
3980;DHT22;2004;52.452;13.120;2022-09-29T05:51:48;9.00;99.90
3980;DHT22;2004;52.452;13.120;2022-09-29T05:59:39;9.10;99.90
3980;DHT22;2004;52.452;13.120;2022-09-29T06:07:29;9.10;99.90
3980;DHT22;2004;52.452;13.120;2022-09-29T06:15:19;9.10;99.90
3980;DHT22;2004;52.452;13.120;2022-09-29T06:23:10;9.20;99.90
3980;DHT22;2004;52.452;13.120;2022-09-29T06:31:05;9.30;99.90
3980;DHT22;2004;52.452;13.120;2022-09-29T06:38:56;9.40;99.90
3980;DHT22;2004;52.452;13.120;2022-09-29T06:46:47;9.40;99.90
3980;DHT22;2004;52.452;13.120;2022-09-29T06:54:38;9.50;99.90
3980;DHT22;2004;52.452;13.120;2022-09-29T07:02:28;9.60;99.90
3980;DHT22;2004;52.452;13.120;2022-09-29T07:10:19;9.70;99.90
3980;DHT22;2004;52.452;13.120;2022-09-29T07:18:10;9.70;99.90
3980;DHT22;2004;52.452;13.120;2022-09-29T07:26:01;9.70;99.90
3980;DHT22;2004;52.452;13.120;2022-09-29T07:33:51;9.70;99.90
3980;DHT22;2004;52.452;13.120;2022-09-29T07:41:42;9.70;99.90
3980;DHT22;2004;52.452;13.120;2022-09-29T07:49:32;9.80;99.90
3980;DHT22;2004;52.452;13.120;2022-09-29T07:57:23;9.90;99.90
3980;DHT22;2004;52.452;13.120;2022-09-29T08:05:13;10.00;99.90
3980;DHT22;2004;52.452;13.120;2022-09-29T08:13:04;10.00;99.90
3980;DHT22;2004;52.452;13.120;2022-09-29T08:20:54;10.00;99.90
3980;DHT22;2004;52.452;13.120;2022-09-29T08:28:46;10.00;99.90
3980;DHT22;2004;52.452;13.120;2022-09-29T08:36:36;10.10;99.90
3980;DHT22;2004;52.452;13.120;2022-09-29T08:44:38;10.20;99.90
3980;DHT22;2004;52.452;13.120;2022-09-29T08:52:33;10.40;99.90
3980;DHT22;2004;52.452;13.120;2022-09-29T09:00:34;10.50;99.90
3980;DHT22;2004;52.452;13.120;2022-09-29T09:17:05;10.80;99.90
3980;DHT22;2004;52.452;13.120;2022-09-29T09:33:18;11.10;99.90
3980;DHT22;2004;52.452;13.120;2022-09-29T09:41:14;11.10;99.90
3980;DHT22;2004;52.452;13.120;2022-09-29T09:49:28;11.20;99.90
3980;DHT22;2004;52.452;13.120;2022-09-29T09:57:56;11.20;99.90
3980;DHT22;2004;52.452;13.120;2022-09-29T10:05:49;11.40;99.90
3980;DHT22;2004;52.452;13.120;2022-09-29T10:13:40;11.50;99.90
3980;DHT22;2004;52.452;13.120;2022-09-29T10:29:37;11.80;99.90
3980;DHT22;2004;52.452;13.120;2022-09-29T10:37:35;11.90;99.90
3980;DHT22;2004;52.452;13.120;2022-09-29T10:45:28;11.90;99.90
3980;DHT22;2004;52.452;13.120;2022-09-29T11:01:21;11.90;99.90
3980;DHT22;2004;52.452;13.120;2022-09-29T11:17:24;11.90;99.90
3980;DHT22;2004;52.452;13.120;2022-09-29T11:50:45;12.30;99.90
3980;DHT22;2004;52.452;13.120;2022-09-29T12:15:53;12.80;99.90
3980;DHT22;2004;52.452;13.120;2022-09-29T12:23:46;12.80;99.90
3980;DHT22;2004;52.452;13.120;2022-09-29T12:31:41;12.90;99.90
3980;DHT22;2004;52.452;13.120;2022-09-29T12:56:15;13.10;99.90
3980;DHT22;2004;52.452;13.120;2022-09-29T13:21:12;13.30;98.80
3980;DHT22;2004;52.452;13.120;2022-09-29T13:29:13;13.40;97.00
3980;DHT22;2004;52.452;13.120;2022-09-29T13:37:13;13.40;95.20
3980;DHT22;2004;52.452;13.120;2022-09-29T13:45:16;13.50;96.20
3980;DHT22;2004;52.452;13.120;2022-09-29T13:53:26;13.60;94.00
3980;DHT22;2004;52.452;13.120;2022-09-29T14:01:34;13.70;92.40
3980;DHT22;2004;52.452;13.120;2022-09-29T14:09:30;13.80;88.60
3980;DHT22;2004;52.452;13.120;2022-09-29T14:17:23;13.80;91.40
3980;DHT22;2004;52.452;13.120;2022-09-29T14:33:19;13.60;94.30
3980;DHT22;2004;52.452;13.120;2022-09-29T14:41:29;13.60;94.80
3980;DHT22;2004;52.452;13.120;2022-09-29T15:06:48;13.60;93.50
3980;DHT22;2004;52.452;13.120;2022-09-29T15:14:38;13.60;94.50
3980;DHT22;2004;52.452;13.120;2022-09-29T15:30:23;13.50;98.50
3980;DHT22;2004;52.452;13.120;2022-09-29T15:46:25;13.40;96.90
3980;DHT22;2004;52.452;13.120;2022-09-29T15:54:29;13.30;98.70
3980;DHT22;2004;52.452;13.120;2022-09-29T16:02:39;13.10;99.20
3980;DHT22;2004;52.452;13.120;2022-09-29T16:10:47;13.10;99.00
3980;DHT22;2004;52.452;13.120;2022-09-29T16:18:41;12.90;99.30
3980;DHT22;2004;52.452;13.120;2022-09-29T16:35:36;12.70;99.90
3980;DHT22;2004;52.452;13.120;2022-09-29T16:43:29;12.50;99.90
3980;DHT22;2004;52.452;13.120;2022-09-29T16:51:22;12.30;99.90
3980;DHT22;2004;52.452;13.120;2022-09-29T16:59:17;12.20;99.90
3980;DHT22;2004;52.452;13.120;2022-09-29T17:07:12;12.00;99.90
3980;DHT22;2004;52.452;13.120;2022-09-29T17:15:04;11.70;99.90
3980;DHT22;2004;52.452;13.120;2022-09-29T17:22:55;11.60;99.90
3980;DHT22;2004;52.452;13.120;2022-09-29T17:30:47;11.40;99.90
3980;DHT22;2004;52.452;13.120;2022-09-29T17:38:37;11.20;99.90
3980;DHT22;2004;52.452;13.120;2022-09-29T17:46:28;11.00;99.90
3980;DHT22;2004;52.452;13.120;2022-09-29T17:54:19;10.90;99.90
3980;DHT22;2004;52.452;13.120;2022-09-29T18:02:13;10.70;99.90
3980;DHT22;2004;52.452;13.120;2022-09-29T18:10:18;10.60;99.90
3980;DHT22;2004;52.452;13.120;2022-09-29T18:18:10;10.50;99.90
3980;DHT22;2004;52.452;13.120;2022-09-29T18:26:04;10.30;99.90
3980;DHT22;2004;52.452;13.120;2022-09-29T18:33:54;10.20;99.90
3980;DHT22;2004;52.452;13.120;2022-09-29T18:41:45;10.10;99.90
3980;DHT22;2004;52.452;13.120;2022-09-29T18:49:35;10.00;99.90
3980;DHT22;2004;52.452;13.120;2022-09-29T18:57:26;9.90;99.90
3980;DHT22;2004;52.452;13.120;2022-09-29T19:05:22;9.70;99.90
3980;DHT22;2004;52.452;13.120;2022-09-29T19:13:14;9.70;99.90
3980;DHT22;2004;52.452;13.120;2022-09-29T19:21:09;9.60;99.90
3980;DHT22;2004;52.452;13.120;2022-09-29T19:37:28;9.50;99.90
3980;DHT22;2004;52.452;13.120;2022-09-29T19:45:19;9.50;99.90
3980;DHT22;2004;52.452;13.120;2022-09-29T19:53:10;9.40;99.90
3980;DHT22;2004;52.452;13.120;2022-09-29T20:01:01;9.40;99.90
3980;DHT22;2004;52.452;13.120;2022-09-29T20:08:51;9.30;99.90
3980;DHT22;2004;52.452;13.120;2022-09-29T20:16:43;9.20;99.90
3980;DHT22;2004;52.452;13.120;2022-09-29T20:24:34;9.20;99.90
3980;DHT22;2004;52.452;13.120;2022-09-29T20:32:25;9.10;99.90
3980;DHT22;2004;52.452;13.120;2022-09-29T20:40:17;9.10;99.90
3980;DHT22;2004;52.452;13.120;2022-09-29T20:48:08;9.00;99.90
3980;DHT22;2004;52.452;13.120;2022-09-29T21:11:47;8.70;99.90
3980;DHT22;2004;52.452;13.120;2022-09-29T21:19:38;8.70;99.90
3980;DHT22;2004;52.452;13.120;2022-09-29T21:27:29;8.60;99.90
3980;DHT22;2004;52.452;13.120;2022-09-29T21:35:21;8.60;99.90
3980;DHT22;2004;52.452;13.120;2022-09-29T21:43:11;8.50;99.90
3980;DHT22;2004;52.452;13.120;2022-09-29T21:51:08;8.50;99.90
3980;DHT22;2004;52.452;13.120;2022-09-29T21:58:59;8.40;99.90
3980;DHT22;2004;52.452;13.120;2022-09-29T22:06:49;8.40;99.90
3980;DHT22;2004;52.452;13.120;2022-09-29T22:14:40;8.40;99.90
3980;DHT22;2004;52.452;13.120;2022-09-29T22:22:30;8.30;99.90
3980;DHT22;2004;52.452;13.120;2022-09-29T22:30:21;8.20;99.90
3980;DHT22;2004;52.452;13.120;2022-09-29T22:38:12;8.20;99.90
3980;DHT22;2004;52.452;13.120;2022-09-29T22:46:03;8.10;99.90
3980;DHT22;2004;52.452;13.120;2022-09-29T22:53:53;8.00;99.90
3980;DHT22;2004;52.452;13.120;2022-09-29T23:01:44;8.00;99.90
3980;DHT22;2004;52.452;13.120;2022-09-29T23:09:36;7.90;99.90
3980;DHT22;2004;52.452;13.120;2022-09-29T23:17:27;7.90;99.90
3980;DHT22;2004;52.452;13.120;2022-09-29T23:25:19;7.80;99.90
3980;DHT22;2004;52.452;13.120;2022-09-29T23:33:09;7.70;99.90
3980;DHT22;2004;52.452;13.120;2022-09-29T23:41:00;7.70;99.90
3980;DHT22;2004;52.452;13.120;2022-09-29T23:48:50;7.60;99.90
3980;DHT22;2004;52.452;13.120;2022-09-29T23:56:41;7.50;99.90
